sensor_id;sensor_type;location;lat;lon;timestamp;P1;durP1;ratioP1;P2;durP2;ratioP2
48613;SDS011;34408;51.426;5.444;2022-07-29T00:00:21;1.77;;;1.15;;
48613;SDS011;34408;51.426;5.444;2022-07-29T00:02:49;2.65;;;1.27;;
48613;SDS011;34408;51.426;5.444;2022-07-29T00:05:17;2.60;;;1.20;;
48613;SDS011;34408;51.426;5.444;2022-07-29T00:07:45;2.33;;;1.17;;
48613;SDS011;34408;51.426;5.444;2022-07-29T00:10:14;2.90;;;1.50;;
48613;SDS011;34408;51.426;5.444;2022-07-29T00:12:42;2.50;;;1.23;;
48613;SDS011;34408;51.426;5.444;2022-07-29T00:15:10;7.00;;;1.17;;
48613;SDS011;34408;51.426;5.444;2022-07-29T00:17:37;2.08;;;1.10;;
48613;SDS011;34408;51.426;5.444;2022-07-29T00:20:06;3.30;;;1.27;;
48613;SDS011;34408;51.426;5.444;2022-07-29T00:22:36;3.72;;;1.17;;
48613;SDS011;34408;51.426;5.444;2022-07-29T00:25:05;2.70;;;0.80;;
48613;SDS011;34408;51.426;5.444;2022-07-29T00:27:36;1.27;;;1.00;;
48613;SDS011;34408;51.426;5.444;2022-07-29T00:30:04;2.92;;;1.25;;
48613;SDS011;34408;51.426;5.444;2022-07-29T00:32:33;2.78;;;1.33;;
48613;SDS011;34408;51.426;5.444;2022-07-29T00:35:01;1.63;;;1.13;;
48613;SDS011;34408;51.426;5.444;2022-07-29T00:37:47;2.78;;;1.15;;
48613;SDS011;34408;51.426;5.444;2022-07-29T00:40:15;2.80;;;1.27;;
48613;SDS011;34408;51.426;5.444;2022-07-29T00:42:44;2.15;;;1.00;;
48613;SDS011;34408;51.426;5.444;2022-07-29T00:45:13;2.28;;;1.05;;
48613;SDS011;34408;51.426;5.444;2022-07-29T00:47:42;4.07;;;1.20;;
48613;SDS011;34408;51.426;5.444;2022-07-29T00:50:10;6.22;;;1.40;;
48613;SDS011;34408;51.426;5.444;2022-07-29T00:52:41;4.97;;;1.60;;
48613;SDS011;34408;51.426;5.444;2022-07-29T00:55:10;4.07;;;1.50;;
48613;SDS011;34408;51.426;5.444;2022-07-29T00:57:40;8.07;;;2.00;;
48613;SDS011;34408;51.426;5.444;2022-07-29T01:00:12;4.25;;;1.58;;
48613;SDS011;34408;51.426;5.444;2022-07-29T01:02:41;3.85;;;1.50;;
48613;SDS011;34408;51.426;5.444;2022-07-29T01:05:09;6.47;;;2.00;;
48613;SDS011;34408;51.426;5.444;2022-07-29T01:07:39;6.75;;;1.75;;
48613;SDS011;34408;51.426;5.444;2022-07-29T01:10:07;7.65;;;2.33;;
48613;SDS011;34408;51.426;5.444;2022-07-29T01:12:37;5.38;;;2.25;;
48613;SDS011;34408;51.426;5.444;2022-07-29T01:15:05;4.43;;;1.90;;
48613;SDS011;34408;51.426;5.444;2022-07-29T01:17:38;13.73;;;2.20;;
48613;SDS011;34408;51.426;5.444;2022-07-29T01:20:20;6.35;;;2.70;;
48613;SDS011;34408;51.426;5.444;2022-07-29T01:26:00;5.18;;;2.10;;
48613;SDS011;34408;51.426;5.444;2022-07-29T01:29:02;6.45;;;2.63;;
48613;SDS011;34408;51.426;5.444;2022-07-29T01:34:25;5.50;;;2.38;;
48613;SDS011;34408;51.426;5.444;2022-07-29T01:36:59;4.95;;;1.90;;
48613;SDS011;34408;51.426;5.444;2022-07-29T01:42:05;5.78;;;2.38;;
48613;SDS011;34408;51.426;5.444;2022-07-29T01:44:41;5.20;;;1.95;;
48613;SDS011;34408;51.426;5.444;2022-07-29T01:47:17;4.75;;;1.80;;
48613;SDS011;34408;51.426;5.444;2022-07-29T01:49:49;4.68;;;2.03;;
48613;SDS011;34408;51.426;5.444;2022-07-29T01:52:21;5.85;;;1.80;;
48613;SDS011;34408;51.426;5.444;2022-07-29T01:54:53;3.22;;;1.95;;
48613;SDS011;34408;51.426;5.444;2022-07-29T01:57:26;4.97;;;2.10;;
48613;SDS011;34408;51.426;5.444;2022-07-29T01:59:58;3.97;;;1.77;;
48613;SDS011;34408;51.426;5.444;2022-07-29T02:02:28;4.47;;;1.90;;
48613;SDS011;34408;51.426;5.444;2022-07-29T02:04:59;4.32;;;2.03;;
48613;SDS011;34408;51.426;5.444;2022-07-29T02:07:29;7.13;;;1.88;;
48613;SDS011;34408;51.426;5.444;2022-07-29T02:10:00;7.20;;;2.00;;
48613;SDS011;34408;51.426;5.444;2022-07-29T02:12:31;6.07;;;1.88;;
48613;SDS011;34408;51.426;5.444;2022-07-29T02:15:01;3.88;;;2.00;;
48613;SDS011;34408;51.426;5.444;2022-07-29T02:17:33;5.65;;;2.20;;
48613;SDS011;34408;51.426;5.444;2022-07-29T02:20:07;5.35;;;2.25;;
48613;SDS011;34408;51.426;5.444;2022-07-29T02:22:37;3.03;;;1.70;;
48613;SDS011;34408;51.426;5.444;2022-07-29T02:25:06;5.00;;;2.00;;
48613;SDS011;34408;51.426;5.444;2022-07-29T02:27:39;6.95;;;2.35;;
48613;SDS011;34408;51.426;5.444;2022-07-29T02:30:10;5.10;;;2.03;;
48613;SDS011;34408;51.426;5.444;2022-07-29T02:32:39;6.85;;;1.98;;
48613;SDS011;34408;51.426;5.444;2022-07-29T02:35:12;5.80;;;1.80;;
48613;SDS011;34408;51.426;5.444;2022-07-29T02:37:42;6.72;;;1.85;;
48613;SDS011;34408;51.426;5.444;2022-07-29T02:40:33;3.17;;;1.80;;
48613;SDS011;34408;51.426;5.444;2022-07-29T02:43:02;3.45;;;2.35;;
48613;SDS011;34408;51.426;5.444;2022-07-29T02:45:35;3.40;;;1.85;;
48613;SDS011;34408;51.426;5.444;2022-07-29T02:48:04;4.00;;;1.70;;
48613;SDS011;34408;51.426;5.444;2022-07-29T02:50:37;2.42;;;1.90;;
48613;SDS011;34408;51.426;5.444;2022-07-29T02:53:12;2.53;;;1.55;;
48613;SDS011;34408;51.426;5.444;2022-07-29T02:55:44;4.28;;;1.67;;
48613;SDS011;34408;51.426;5.444;2022-07-29T02:58:15;5.80;;;2.10;;
48613;SDS011;34408;51.426;5.444;2022-07-29T03:00:53;5.70;;;1.98;;
48613;SDS011;34408;51.426;5.444;2022-07-29T03:03:25;5.72;;;1.83;;
48613;SDS011;34408;51.426;5.444;2022-07-29T03:05:57;3.88;;;1.60;;
48613;SDS011;34408;51.426;5.444;2022-07-29T03:08:27;6.57;;;1.63;;
48613;SDS011;34408;51.426;5.444;2022-07-29T03:10:55;4.97;;;1.92;;
48613;SDS011;34408;51.426;5.444;2022-07-29T03:13:23;3.35;;;1.70;;
48613;SDS011;34408;51.426;5.444;2022-07-29T03:15:54;5.38;;;1.92;;
48613;SDS011;34408;51.426;5.444;2022-07-29T03:18:23;3.53;;;1.80;;
48613;SDS011;34408;51.426;5.444;2022-07-29T03:20:52;3.95;;;1.40;;
48613;SDS011;34408;51.426;5.444;2022-07-29T03:23:20;7.05;;;2.03;;
48613;SDS011;34408;51.426;5.444;2022-07-29T03:25:50;7.78;;;2.05;;
48613;SDS011;34408;51.426;5.444;2022-07-29T03:28:20;6.10;;;1.80;;
48613;SDS011;34408;51.426;5.444;2022-07-29T03:30:52;4.22;;;2.17;;
48613;SDS011;34408;51.426;5.444;2022-07-29T03:33:22;6.13;;;1.90;;
48613;SDS011;34408;51.426;5.444;2022-07-29T03:35:49;2.88;;;1.60;;
48613;SDS011;34408;51.426;5.444;2022-07-29T03:38:17;4.88;;;1.83;;
48613;SDS011;34408;51.426;5.444;2022-07-29T03:40:46;5.47;;;2.22;;
48613;SDS011;34408;51.426;5.444;2022-07-29T03:43:28;3.78;;;1.85;;
48613;SDS011;34408;51.426;5.444;2022-07-29T03:46:00;7.63;;;2.03;;
48613;SDS011;34408;51.426;5.444;2022-07-29T03:48:30;4.75;;;2.53;;
48613;SDS011;34408;51.426;5.444;2022-07-29T03:51:02;3.30;;;1.77;;
48613;SDS011;34408;51.426;5.444;2022-07-29T03:53:30;3.72;;;1.55;;
48613;SDS011;34408;51.426;5.444;2022-07-29T03:55:58;5.93;;;1.52;;
48613;SDS011;34408;51.426;5.444;2022-07-29T03:58:28;4.50;;;2.17;;
48613;SDS011;34408;51.426;5.444;2022-07-29T04:00:59;2.80;;;1.63;;
48613;SDS011;34408;51.426;5.444;2022-07-29T04:03:27;3.38;;;1.70;;
48613;SDS011;34408;51.426;5.444;2022-07-29T04:06:00;3.75;;;1.42;;
48613;SDS011;34408;51.426;5.444;2022-07-29T04:08:29;4.68;;;2.25;;
48613;SDS011;34408;51.426;5.444;2022-07-29T04:10:57;6.07;;;2.00;;
48613;SDS011;34408;51.426;5.444;2022-07-29T04:13:25;6.20;;;1.85;;
48613;SDS011;34408;51.426;5.444;2022-07-29T04:15:53;4.93;;;2.72;;
48613;SDS011;34408;51.426;5.444;2022-07-29T04:18:20;2.42;;;1.65;;
48613;SDS011;34408;51.426;5.444;2022-07-29T04:20:48;4.30;;;2.00;;
48613;SDS011;34408;51.426;5.444;2022-07-29T04:23:18;5.57;;;1.77;;
48613;SDS011;34408;51.426;5.444;2022-07-29T04:25:46;3.75;;;1.88;;
48613;SDS011;34408;51.426;5.444;2022-07-29T04:28:14;4.43;;;1.95;;
48613;SDS011;34408;51.426;5.444;2022-07-29T04:30:42;3.53;;;1.80;;
48613;SDS011;34408;51.426;5.444;2022-07-29T04:33:10;4.93;;;1.80;;
48613;SDS011;34408;51.426;5.444;2022-07-29T04:35:38;4.57;;;1.88;;
48613;SDS011;34408;51.426;5.444;2022-07-29T04:38:18;3.25;;;1.58;;
48613;SDS011;34408;51.426;5.444;2022-07-29T04:40:46;2.92;;;1.63;;
48613;SDS011;34408;51.426;5.444;2022-07-29T04:43:15;3.85;;;1.50;;
48613;SDS011;34408;51.426;5.444;2022-07-29T04:45:48;5.35;;;1.80;;
48613;SDS011;34408;51.426;5.444;2022-07-29T04:48:16;3.22;;;2.33;;
48613;SDS011;34408;51.426;5.444;2022-07-29T04:50:44;4.00;;;1.92;;
48613;SDS011;34408;51.426;5.444;2022-07-29T04:53:12;3.63;;;1.70;;
48613;SDS011;34408;51.426;5.444;2022-07-29T04:55:41;3.45;;;2.10;;
48613;SDS011;34408;51.426;5.444;2022-07-29T04:58:09;5.13;;;1.90;;
48613;SDS011;34408;51.426;5.444;2022-07-29T05:00:36;4.65;;;2.05;;
48613;SDS011;34408;51.426;5.444;2022-07-29T05:03:04;8.00;;;2.80;;
48613;SDS011;34408;51.426;5.444;2022-07-29T05:05:32;4.88;;;1.90;;
48613;SDS011;34408;51.426;5.444;2022-07-29T05:08:00;4.15;;;1.70;;
48613;SDS011;34408;51.426;5.444;2022-07-29T05:10:28;5.55;;;1.92;;
48613;SDS011;34408;51.426;5.444;2022-07-29T05:12:57;4.78;;;1.77;;
48613;SDS011;34408;51.426;5.444;2022-07-29T05:15:25;2.40;;;1.50;;
48613;SDS011;34408;51.426;5.444;2022-07-29T05:17:53;4.47;;;1.83;;
48613;SDS011;34408;51.426;5.444;2022-07-29T05:20:21;4.63;;;1.90;;
48613;SDS011;34408;51.426;5.444;2022-07-29T05:22:52;5.45;;;2.20;;
48613;SDS011;34408;51.426;5.444;2022-07-29T05:25:20;6.60;;;2.00;;
48613;SDS011;34408;51.426;5.444;2022-07-29T05:28:07;4.18;;;1.60;;
48613;SDS011;34408;51.426;5.444;2022-07-29T05:30:35;4.85;;;2.00;;
48613;SDS011;34408;51.426;5.444;2022-07-29T05:33:03;3.17;;;1.73;;
48613;SDS011;34408;51.426;5.444;2022-07-29T05:35:30;3.97;;;2.10;;
48613;SDS011;34408;51.426;5.444;2022-07-29T05:37:58;3.78;;;1.90;;
48613;SDS011;34408;51.426;5.444;2022-07-29T05:40:26;6.72;;;2.63;;
48613;SDS011;34408;51.426;5.444;2022-07-29T05:42:54;3.85;;;1.85;;
48613;SDS011;34408;51.426;5.444;2022-07-29T05:45:24;3.38;;;1.83;;
48613;SDS011;34408;51.426;5.444;2022-07-29T05:47:52;7.97;;;2.60;;
48613;SDS011;34408;51.426;5.444;2022-07-29T05:50:19;3.05;;;2.33;;
48613;SDS011;34408;51.426;5.444;2022-07-29T05:52:47;3.85;;;2.17;;
48613;SDS011;34408;51.426;5.444;2022-07-29T05:55:15;3.25;;;2.00;;
48613;SDS011;34408;51.426;5.444;2022-07-29T05:57:43;4.32;;;2.28;;
48613;SDS011;34408;51.426;5.444;2022-07-29T06:00:11;4.35;;;2.15;;
48613;SDS011;34408;51.426;5.444;2022-07-29T06:02:41;6.82;;;2.30;;
48613;SDS011;34408;51.426;5.444;2022-07-29T06:05:09;5.57;;;2.10;;
48613;SDS011;34408;51.426;5.444;2022-07-29T06:07:42;3.72;;;2.08;;
48613;SDS011;34408;51.426;5.444;2022-07-29T06:10:16;4.60;;;2.13;;
48613;SDS011;34408;51.426;5.444;2022-07-29T06:12:49;5.97;;;2.47;;
48613;SDS011;34408;51.426;5.444;2022-07-29T06:15:20;7.47;;;2.53;;
48613;SDS011;34408;51.426;5.444;2022-07-29T06:17:49;5.28;;;2.40;;
48613;SDS011;34408;51.426;5.444;2022-07-29T06:20:26;6.15;;;2.40;;
48613;SDS011;34408;51.426;5.444;2022-07-29T06:22:56;4.72;;;2.38;;
48613;SDS011;34408;51.426;5.444;2022-07-29T06:25:24;4.43;;;2.08;;
48613;SDS011;34408;51.426;5.444;2022-07-29T06:27:52;7.30;;;2.55;;
48613;SDS011;34408;51.426;5.444;2022-07-29T06:30:20;5.18;;;2.03;;
48613;SDS011;34408;51.426;5.444;2022-07-29T06:32:49;6.70;;;2.80;;
48613;SDS011;34408;51.426;5.444;2022-07-29T06:35:17;5.55;;;2.20;;
48613;SDS011;34408;51.426;5.444;2022-07-29T06:38:05;4.45;;;2.38;;
48613;SDS011;34408;51.426;5.444;2022-07-29T06:40:53;5.00;;;2.00;;
48613;SDS011;34408;51.426;5.444;2022-07-29T06:43:30;4.43;;;2.25;;
48613;SDS011;34408;51.426;5.444;2022-07-29T06:46:01;3.95;;;2.13;;
48613;SDS011;34408;51.426;5.444;2022-07-29T06:48:31;8.25;;;2.80;;
48613;SDS011;34408;51.426;5.444;2022-07-29T06:51:00;4.78;;;2.55;;
48613;SDS011;34408;51.426;5.444;2022-07-29T06:53:28;8.32;;;3.17;;
48613;SDS011;34408;51.426;5.444;2022-07-29T06:55:56;6.63;;;2.20;;
48613;SDS011;34408;51.426;5.444;2022-07-29T06:58:25;5.32;;;2.63;;
48613;SDS011;34408;51.426;5.444;2022-07-29T07:00:53;5.22;;;2.50;;
48613;SDS011;34408;51.426;5.444;2022-07-29T07:03:22;4.78;;;2.40;;
48613;SDS011;34408;51.426;5.444;2022-07-29T07:05:51;5.45;;;2.25;;
48613;SDS011;34408;51.426;5.444;2022-07-29T07:08:20;7.13;;;2.45;;
48613;SDS011;34408;51.426;5.444;2022-07-29T07:10:49;8.57;;;2.40;;
48613;SDS011;34408;51.426;5.444;2022-07-29T07:13:17;4.20;;;2.45;;
48613;SDS011;34408;51.426;5.444;2022-07-29T07:15:46;5.13;;;2.40;;
48613;SDS011;34408;51.426;5.444;2022-07-29T07:18:14;4.60;;;2.60;;
48613;SDS011;34408;51.426;5.444;2022-07-29T07:20:43;7.78;;;2.40;;
48613;SDS011;34408;51.426;5.444;2022-07-29T07:23:12;6.32;;;1.80;;
48613;SDS011;34408;51.426;5.444;2022-07-29T07:25:40;5.28;;;2.42;;
48613;SDS011;34408;51.426;5.444;2022-07-29T07:28:08;7.45;;;2.88;;
48613;SDS011;34408;51.426;5.444;2022-07-29T07:30:36;6.85;;;2.40;;
48613;SDS011;34408;51.426;5.444;2022-07-29T07:33:04;5.85;;;2.50;;
48613;SDS011;34408;51.426;5.444;2022-07-29T07:35:32;6.35;;;2.28;;
48613;SDS011;34408;51.426;5.444;2022-07-29T07:38:00;3.90;;;2.40;;
48613;SDS011;34408;51.426;5.444;2022-07-29T07:40:29;6.28;;;2.28;;
48613;SDS011;34408;51.426;5.444;2022-07-29T07:42:57;5.95;;;2.53;;
48613;SDS011;34408;51.426;5.444;2022-07-29T07:45:25;4.72;;;2.90;;
48613;SDS011;34408;51.426;5.444;2022-07-29T07:47:54;6.78;;;2.47;;
48613;SDS011;34408;51.426;5.444;2022-07-29T07:50:22;5.13;;;2.35;;
48613;SDS011;34408;51.426;5.444;2022-07-29T07:52:51;6.85;;;2.80;;
48613;SDS011;34408;51.426;5.444;2022-07-29T07:55:21;5.88;;;2.22;;
48613;SDS011;34408;51.426;5.444;2022-07-29T07:57:50;4.53;;;2.20;;
48613;SDS011;34408;51.426;5.444;2022-07-29T08:00:18;5.35;;;2.30;;
48613;SDS011;34408;51.426;5.444;2022-07-29T08:02:49;6.60;;;2.60;;
48613;SDS011;34408;51.426;5.444;2022-07-29T08:05:17;8.45;;;2.67;;
48613;SDS011;34408;51.426;5.444;2022-07-29T08:07:46;6.63;;;2.38;;
48613;SDS011;34408;51.426;5.444;2022-07-29T08:10:14;4.90;;;2.10;;
48613;SDS011;34408;51.426;5.444;2022-07-29T08:13:04;6.05;;;2.30;;
48613;SDS011;34408;51.426;5.444;2022-07-29T08:15:32;4.88;;;2.53;;
48613;SDS011;34408;51.426;5.444;2022-07-29T08:18:00;4.70;;;2.20;;
48613;SDS011;34408;51.426;5.444;2022-07-29T08:20:34;3.55;;;2.13;;
48613;SDS011;34408;51.426;5.444;2022-07-29T08:23:02;4.90;;;2.35;;
48613;SDS011;34408;51.426;5.444;2022-07-29T08:25:32;6.20;;;2.17;;
48613;SDS011;34408;51.426;5.444;2022-07-29T08:28:06;5.30;;;2.05;;
48613;SDS011;34408;51.426;5.444;2022-07-29T08:30:34;7.03;;;2.50;;
48613;SDS011;34408;51.426;5.444;2022-07-29T08:33:02;7.95;;;2.70;;
48613;SDS011;34408;51.426;5.444;2022-07-29T08:35:30;9.30;;;3.10;;
48613;SDS011;34408;51.426;5.444;2022-07-29T08:38:01;4.43;;;1.85;;
48613;SDS011;34408;51.426;5.444;2022-07-29T08:40:29;4.82;;;2.40;;
48613;SDS011;34408;51.426;5.444;2022-07-29T08:42:58;4.45;;;2.35;;
48613;SDS011;34408;51.426;5.444;2022-07-29T08:45:35;8.07;;;2.47;;
48613;SDS011;34408;51.426;5.444;2022-07-29T08:48:14;6.10;;;2.30;;
48613;SDS011;34408;51.426;5.444;2022-07-29T08:50:43;6.20;;;2.03;;
48613;SDS011;34408;51.426;5.444;2022-07-29T08:53:12;5.25;;;2.45;;
48613;SDS011;34408;51.426;5.444;2022-07-29T08:55:42;4.25;;;2.38;;
48613;SDS011;34408;51.426;5.444;2022-07-29T08:58:11;4.45;;;2.28;;
48613;SDS011;34408;51.426;5.444;2022-07-29T09:00:43;4.82;;;2.10;;
48613;SDS011;34408;51.426;5.444;2022-07-29T09:03:15;2.72;;;1.92;;
48613;SDS011;34408;51.426;5.444;2022-07-29T09:05:46;5.18;;;2.33;;
48613;SDS011;34408;51.426;5.444;2022-07-29T09:08:15;6.10;;;2.30;;
48613;SDS011;34408;51.426;5.444;2022-07-29T09:10:43;6.88;;;2.22;;
48613;SDS011;34408;51.426;5.444;2022-07-29T09:13:12;3.38;;;2.30;;
48613;SDS011;34408;51.426;5.444;2022-07-29T09:15:39;3.35;;;2.05;;
48613;SDS011;34408;51.426;5.444;2022-07-29T09:18:09;6.00;;;2.35;;
48613;SDS011;34408;51.426;5.444;2022-07-29T09:20:56;5.85;;;2.05;;
48613;SDS011;34408;51.426;5.444;2022-07-29T09:23:48;5.60;;;1.85;;
48613;SDS011;34408;51.426;5.444;2022-07-29T09:26:27;4.25;;;2.05;;
48613;SDS011;34408;51.426;5.444;2022-07-29T09:28:55;5.22;;;2.25;;
48613;SDS011;34408;51.426;5.444;2022-07-29T09:31:28;8.25;;;2.78;;
48613;SDS011;34408;51.426;5.444;2022-07-29T09:34:02;5.40;;;2.15;;
48613;SDS011;34408;51.426;5.444;2022-07-29T09:36:32;6.50;;;2.72;;
48613;SDS011;34408;51.426;5.444;2022-07-29T09:39:06;9.37;;;2.43;;
48613;SDS011;34408;51.426;5.444;2022-07-29T09:41:45;6.43;;;2.03;;
48613;SDS011;34408;51.426;5.444;2022-07-29T09:44:14;4.15;;;1.75;;
48613;SDS011;34408;51.426;5.444;2022-07-29T09:46:55;4.00;;;2.13;;
48613;SDS011;34408;51.426;5.444;2022-07-29T09:49:26;6.80;;;2.75;;
48613;SDS011;34408;51.426;5.444;2022-07-29T09:52:03;4.60;;;1.67;;
48613;SDS011;34408;51.426;5.444;2022-07-29T09:54:33;8.20;;;2.42;;
48613;SDS011;34408;51.426;5.444;2022-07-29T09:57:04;4.75;;;1.60;;
48613;SDS011;34408;51.426;5.444;2022-07-29T09:59:33;3.25;;;1.95;;
48613;SDS011;34408;51.426;5.444;2022-07-29T10:02:15;3.00;;;1.67;;
48613;SDS011;34408;51.426;5.444;2022-07-29T10:04:50;6.43;;;1.80;;
48613;SDS011;34408;51.426;5.444;2022-07-29T10:07:18;4.07;;;1.85;;
48613;SDS011;34408;51.426;5.444;2022-07-29T10:09:49;4.25;;;1.58;;
48613;SDS011;34408;51.426;5.444;2022-07-29T10:12:19;3.90;;;1.50;;
48613;SDS011;34408;51.426;5.444;2022-07-29T10:14:47;5.03;;;1.98;;
48613;SDS011;34408;51.426;5.444;2022-07-29T10:17:16;5.78;;;2.10;;
48613;SDS011;34408;51.426;5.444;2022-07-29T10:19:45;3.60;;;1.75;;
48613;SDS011;34408;51.426;5.444;2022-07-29T10:22:17;8.45;;;1.98;;
48613;SDS011;34408;51.426;5.444;2022-07-29T10:25:05;7.32;;;2.08;;
48613;SDS011;34408;51.426;5.444;2022-07-29T10:27:34;5.00;;;2.13;;
48613;SDS011;34408;51.426;5.444;2022-07-29T10:30:02;4.65;;;1.75;;
48613;SDS011;34408;51.426;5.444;2022-07-29T10:32:34;5.45;;;1.60;;
48613;SDS011;34408;51.426;5.444;2022-07-29T10:35:21;4.70;;;1.55;;
48613;SDS011;34408;51.426;5.444;2022-07-29T10:38:07;3.83;;;2.10;;
48613;SDS011;34408;51.426;5.444;2022-07-29T10:40:51;4.18;;;1.67;;
48613;SDS011;34408;51.426;5.444;2022-07-29T10:43:47;5.25;;;2.17;;
48613;SDS011;34408;51.426;5.444;2022-07-29T10:46:17;3.47;;;1.67;;
48613;SDS011;34408;51.426;5.444;2022-07-29T10:49:04;5.72;;;1.90;;
48613;SDS011;34408;51.426;5.444;2022-07-29T10:51:53;9.05;;;2.53;;
48613;SDS011;34408;51.426;5.444;2022-07-29T10:57:11;5.43;;;2.00;;
48613;SDS011;34408;51.426;5.444;2022-07-29T10:59:46;2.92;;;1.60;;
48613;SDS011;34408;51.426;5.444;2022-07-29T11:05:10;5.95;;;2.10;;
48613;SDS011;34408;51.426;5.444;2022-07-29T11:07:40;3.85;;;1.77;;
48613;SDS011;34408;51.426;5.444;2022-07-29T11:14:10;3.95;;;2.33;;
48613;SDS011;34408;51.426;5.444;2022-07-29T11:19:26;3.92;;;2.05;;
48613;SDS011;34408;51.426;5.444;2022-07-29T11:21:56;4.30;;;1.67;;
48613;SDS011;34408;51.426;5.444;2022-07-29T11:24:27;3.55;;;1.58;;
48613;SDS011;34408;51.426;5.444;2022-07-29T11:27:11;4.13;;;1.55;;
48613;SDS011;34408;51.426;5.444;2022-07-29T11:29:50;4.03;;;1.65;;
48613;SDS011;34408;51.426;5.444;2022-07-29T11:32:21;3.42;;;1.60;;
48613;SDS011;34408;51.426;5.444;2022-07-29T11:37:43;3.53;;;1.50;;
48613;SDS011;34408;51.426;5.444;2022-07-29T11:40:32;3.95;;;1.77;;
48613;SDS011;34408;51.426;5.444;2022-07-29T11:43:01;2.38;;;1.60;;
48613;SDS011;34408;51.426;5.444;2022-07-29T11:45:46;4.82;;;1.40;;
48613;SDS011;34408;51.426;5.444;2022-07-29T11:48:15;4.43;;;1.63;;
48613;SDS011;34408;51.426;5.444;2022-07-29T11:50:57;3.28;;;1.80;;
48613;SDS011;34408;51.426;5.444;2022-07-29T11:53:26;3.38;;;1.55;;
48613;SDS011;34408;51.426;5.444;2022-07-29T11:55:58;2.78;;;1.50;;
48613;SDS011;34408;51.426;5.444;2022-07-29T11:58:28;2.45;;;1.40;;
48613;SDS011;34408;51.426;5.444;2022-07-29T12:00:58;3.03;;;1.45;;
48613;SDS011;34408;51.426;5.444;2022-07-29T12:03:30;4.20;;;2.05;;
48613;SDS011;34408;51.426;5.444;2022-07-29T12:06:18;4.82;;;2.22;;
48613;SDS011;34408;51.426;5.444;2022-07-29T12:08:46;4.00;;;1.40;;
48613;SDS011;34408;51.426;5.444;2022-07-29T12:11:15;4.30;;;2.22;;
48613;SDS011;34408;51.426;5.444;2022-07-29T12:13:48;3.13;;;1.38;;
48613;SDS011;34408;51.426;5.444;2022-07-29T12:16:18;4.38;;;1.42;;
48613;SDS011;34408;51.426;5.444;2022-07-29T12:18:55;3.70;;;2.17;;
48613;SDS011;34408;51.426;5.444;2022-07-29T12:21:24;4.68;;;1.60;;
48613;SDS011;34408;51.426;5.444;2022-07-29T12:23:54;2.30;;;1.70;;
48613;SDS011;34408;51.426;5.444;2022-07-29T12:26:31;2.80;;;1.33;;
48613;SDS011;34408;51.426;5.444;2022-07-29T12:29:01;3.75;;;1.30;;
48613;SDS011;34408;51.426;5.444;2022-07-29T12:31:38;4.38;;;1.40;;
48613;SDS011;34408;51.426;5.444;2022-07-29T12:34:10;3.83;;;1.40;;
48613;SDS011;34408;51.426;5.444;2022-07-29T12:36:39;2.13;;;1.38;;
48613;SDS011;34408;51.426;5.444;2022-07-29T12:39:08;2.95;;;1.45;;
48613;SDS011;34408;51.426;5.444;2022-07-29T12:41:37;6.00;;;1.42;;
48613;SDS011;34408;51.426;5.444;2022-07-29T12:44:05;5.18;;;1.40;;
48613;SDS011;34408;51.426;5.444;2022-07-29T12:46:32;3.60;;;1.70;;
48613;SDS011;34408;51.426;5.444;2022-07-29T12:49:02;2.97;;;1.45;;
48613;SDS011;34408;51.426;5.444;2022-07-29T12:51:32;4.50;;;1.55;;
48613;SDS011;34408;51.426;5.444;2022-07-29T12:54:03;7.13;;;1.67;;
48613;SDS011;34408;51.426;5.444;2022-07-29T12:56:36;2.72;;;1.40;;
48613;SDS011;34408;51.426;5.444;2022-07-29T12:59:14;6.93;;;1.52;;
48613;SDS011;34408;51.426;5.444;2022-07-29T13:01:45;5.18;;;1.60;;
48613;SDS011;34408;51.426;5.444;2022-07-29T13:04:25;3.53;;;1.50;;
48613;SDS011;34408;51.426;5.444;2022-07-29T13:07:00;3.30;;;1.50;;
48613;SDS011;34408;51.426;5.444;2022-07-29T13:09:36;5.72;;;2.08;;
48613;SDS011;34408;51.426;5.444;2022-07-29T13:12:05;4.97;;;1.80;;
48613;SDS011;34408;51.426;5.444;2022-07-29T13:14:35;3.60;;;1.52;;
48613;SDS011;34408;51.426;5.444;2022-07-29T13:17:05;4.28;;;1.42;;
48613;SDS011;34408;51.426;5.444;2022-07-29T13:19:39;3.42;;;1.63;;
48613;SDS011;34408;51.426;5.444;2022-07-29T13:22:08;3.15;;;1.50;;
48613;SDS011;34408;51.426;5.444;2022-07-29T13:24:46;6.28;;;1.48;;
48613;SDS011;34408;51.426;5.444;2022-07-29T13:27:15;3.15;;;1.65;;
48613;SDS011;34408;51.426;5.444;2022-07-29T13:29:44;2.50;;;1.42;;
48613;SDS011;34408;51.426;5.444;2022-07-29T13:32:12;5.20;;;1.58;;
48613;SDS011;34408;51.426;5.444;2022-07-29T13:34:42;3.38;;;1.48;;
48613;SDS011;34408;51.426;5.444;2022-07-29T13:37:10;5.88;;;1.70;;
48613;SDS011;34408;51.426;5.444;2022-07-29T13:39:38;2.88;;;1.45;;
48613;SDS011;34408;51.426;5.444;2022-07-29T13:42:06;3.85;;;1.60;;
48613;SDS011;34408;51.426;5.444;2022-07-29T13:44:36;7.32;;;1.70;;
48613;SDS011;34408;51.426;5.444;2022-07-29T13:47:04;3.10;;;1.42;;
48613;SDS011;34408;51.426;5.444;2022-07-29T13:49:32;2.15;;;1.27;;
48613;SDS011;34408;51.426;5.444;2022-07-29T13:52:01;4.28;;;1.83;;
48613;SDS011;34408;51.426;5.444;2022-07-29T13:54:30;7.18;;;1.75;;
48613;SDS011;34408;51.426;5.444;2022-07-29T13:56:58;3.97;;;1.58;;
48613;SDS011;34408;51.426;5.444;2022-07-29T13:59:26;2.55;;;1.27;;
48613;SDS011;34408;51.426;5.444;2022-07-29T14:01:54;3.38;;;1.40;;
48613;SDS011;34408;51.426;5.444;2022-07-29T14:04:22;3.47;;;1.42;;
48613;SDS011;34408;51.426;5.444;2022-07-29T14:06:51;5.57;;;2.15;;
48613;SDS011;34408;51.426;5.444;2022-07-29T14:09:20;3.65;;;1.67;;
48613;SDS011;34408;51.426;5.444;2022-07-29T14:11:48;5.85;;;1.85;;
48613;SDS011;34408;51.426;5.444;2022-07-29T14:14:17;6.50;;;1.60;;
48613;SDS011;34408;51.426;5.444;2022-07-29T14:16:45;6.07;;;1.70;;
48613;SDS011;34408;51.426;5.444;2022-07-29T14:19:17;4.80;;;1.92;;
48613;SDS011;34408;51.426;5.444;2022-07-29T14:21:45;8.70;;;2.17;;
48613;SDS011;34408;51.426;5.444;2022-07-29T14:24:15;4.15;;;1.58;;
48613;SDS011;34408;51.426;5.444;2022-07-29T14:26:50;4.50;;;1.92;;
48613;SDS011;34408;51.426;5.444;2022-07-29T14:29:18;4.05;;;1.70;;
48613;SDS011;34408;51.426;5.444;2022-07-29T14:31:46;5.72;;;1.63;;
48613;SDS011;34408;51.426;5.444;2022-07-29T14:34:14;8.63;;;1.95;;
48613;SDS011;34408;51.426;5.444;2022-07-29T14:36:42;6.15;;;1.80;;
48613;SDS011;34408;51.426;5.444;2022-07-29T14:39:10;8.40;;;2.00;;
48613;SDS011;34408;51.426;5.444;2022-07-29T14:41:38;7.60;;;1.83;;
48613;SDS011;34408;51.426;5.444;2022-07-29T14:44:07;4.95;;;1.48;;
48613;SDS011;34408;51.426;5.444;2022-07-29T14:46:35;4.55;;;1.52;;
48613;SDS011;34408;51.426;5.444;2022-07-29T14:49:03;5.22;;;1.58;;
48613;SDS011;34408;51.426;5.444;2022-07-29T14:51:34;6.65;;;1.80;;
48613;SDS011;34408;51.426;5.444;2022-07-29T14:54:03;3.17;;;1.60;;
48613;SDS011;34408;51.426;5.444;2022-07-29T14:56:30;10.50;;;1.67;;
48613;SDS011;34408;51.426;5.444;2022-07-29T14:59:02;4.65;;;1.70;;
48613;SDS011;34408;51.426;5.444;2022-07-29T15:01:32;6.00;;;1.80;;
48613;SDS011;34408;51.426;5.444;2022-07-29T15:04:00;5.13;;;1.50;;
48613;SDS011;34408;51.426;5.444;2022-07-29T15:06:27;6.53;;;1.70;;
48613;SDS011;34408;51.426;5.444;2022-07-29T15:08:55;6.82;;;1.67;;
48613;SDS011;34408;51.426;5.444;2022-07-29T15:11:23;3.35;;;1.80;;
48613;SDS011;34408;51.426;5.444;2022-07-29T15:13:51;6.97;;;1.85;;
48613;SDS011;34408;51.426;5.444;2022-07-29T15:16:20;4.88;;;1.70;;
48613;SDS011;34408;51.426;5.444;2022-07-29T15:18:49;4.85;;;1.15;;
48613;SDS011;34408;51.426;5.444;2022-07-29T15:21:17;3.88;;;1.35;;
48613;SDS011;34408;51.426;5.444;2022-07-29T15:23:45;3.92;;;1.40;;
48613;SDS011;34408;51.426;5.444;2022-07-29T15:26:13;4.30;;;1.50;;
48613;SDS011;34408;51.426;5.444;2022-07-29T15:28:41;4.03;;;1.60;;
48613;SDS011;34408;51.426;5.444;2022-07-29T15:31:09;5.78;;;1.60;;
48613;SDS011;34408;51.426;5.444;2022-07-29T15:33:37;3.88;;;1.75;;